createdAt,value
2022-09-01T00:00:33.279Z,2.53
2022-09-01T00:03:03.835Z,2.50
2022-09-01T00:05:33.325Z,2.60
2022-09-01T00:08:01.733Z,2.38
2022-09-01T00:10:30.166Z,2.53
2022-09-01T00:12:58.860Z,2.60
2022-09-01T00:15:28.224Z,2.50
2022-09-01T00:17:56.801Z,2.58
2022-09-01T00:20:27.186Z,2.50
2022-09-01T00:22:55.889Z,2.50
2022-09-01T00:25:25.362Z,2.88
2022-09-01T00:27:54.567Z,2.70
2022-09-01T00:30:24.040Z,2.40
2022-09-01T00:32:52.904Z,2.83
2022-09-01T00:35:22.981Z,2.50
2022-09-01T00:37:53.015Z,2.75
2022-09-01T00:40:21.879Z,2.45
2022-09-01T00:42:51.360Z,2.70
2022-09-01T00:45:21.747Z,2.70
2022-09-01T00:47:51.594Z,2.58
2022-09-01T00:50:21.406Z,2.50
2022-09-01T00:52:56.095Z,2.70
2022-09-01T00:55:32.734Z,2.40
2022-09-01T00:58:04.546Z,2.88
2022-09-01T01:00:41.830Z,2.63
2022-09-01T01:03:13.212Z,2.67
2022-09-01T01:05:54.873Z,2.75
2022-09-01T01:08:34.136Z,2.42
2022-09-01T01:11:04.079Z,2.53
2022-09-01T01:13:36.413Z,2.40
2022-09-01T01:16:08.518Z,2.60
2022-09-01T01:18:37.073Z,2.65
2022-09-01T01:21:26.061Z,3.10
2022-09-01T01:24:03.811Z,2.88
2022-09-01T01:26:34.028Z,2.60
2022-09-01T01:29:03.972Z,3.10
2022-09-01T01:31:33.237Z,2.55
2022-09-01T01:34:02.276Z,2.83
2022-09-01T01:36:36.744Z,2.60
2022-09-01T01:39:08.456Z,2.50
2022-09-01T01:41:42.356Z,2.65
2022-09-01T01:44:12.495Z,2.88
2022-09-01T01:46:45.019Z,3.25
2022-09-01T01:49:20.197Z,3.00
2022-09-01T01:51:49.871Z,3.03
2022-09-01T01:54:20.238Z,3.13
2022-09-01T01:56:50.991Z,3.20
2022-09-01T01:59:19.810Z,2.75
2022-09-01T02:01:51.947Z,2.60
2022-09-01T02:04:21.821Z,3.00
2022-09-01T02:06:52.224Z,3.05
2022-09-01T02:09:23.513Z,3.03
2022-09-01T02:11:57.410Z,3.10
2022-09-01T02:14:26.445Z,2.58
2022-09-01T02:16:56.401Z,3.25
2022-09-01T02:19:25.069Z,3.78
2022-09-01T02:21:56.413Z,2.85
2022-09-01T02:24:26.657Z,3.83
2022-09-01T02:27:00.822Z,3.15
2022-09-01T02:29:30.443Z,3.65
2022-09-01T02:32:04.886Z,3.47
2022-09-01T02:34:34.836Z,3.70
2022-09-01T02:37:03.901Z,3.45
2022-09-01T02:39:34.238Z,3.42
2022-09-01T02:42:04.336Z,3.45
2022-09-01T02:44:33.068Z,3.55
2022-09-01T02:47:02.014Z,3.53
2022-09-01T02:49:30.433Z,3.42
2022-09-01T02:52:03.106Z,3.83
2022-09-01T02:54:33.160Z,3.55
2022-09-01T02:57:04.312Z,3.50
2022-09-01T02:59:35.098Z,3.90
2022-09-01T03:02:03.967Z,3.47
2022-09-01T03:04:35.558Z,4.15
2022-09-01T03:07:04.952Z,3.70
2022-09-01T03:09:35.284Z,4.10
2022-09-01T03:12:07.434Z,3.90
2022-09-01T03:14:35.820Z,3.85
2022-09-01T03:17:05.033Z,3.70
2022-09-01T03:19:40.552Z,3.97
2022-09-01T03:22:08.966Z,3.80
2022-09-01T03:24:38.661Z,4.05
2022-09-01T03:27:12.261Z,3.90
2022-09-01T03:29:40.741Z,3.90
2022-09-01T03:32:09.382Z,3.67
2022-09-01T03:34:39.899Z,4.18
2022-09-01T03:37:09.972Z,3.88
2022-09-01T03:39:38.470Z,3.40
2022-09-01T03:42:09.408Z,3.80
2022-09-01T03:44:41.405Z,4.10
2022-09-01T03:47:15.437Z,4.03
2022-09-01T03:49:45.800Z,4.40
2022-09-01T03:52:16.061Z,3.50
2022-09-01T03:54:46.152Z,3.60
2022-09-01T03:57:14.543Z,3.33
2022-09-01T03:59:45.406Z,3.50
2022-09-01T04:02:15.322Z,3.72
2022-09-01T04:04:43.865Z,4.10
2022-09-01T04:07:19.079Z,3.72
2022-09-01T04:09:47.938Z,4.05
2022-09-01T04:12:17.468Z,3.90
2022-09-01T04:14:48.931Z,4.00
2022-09-01T04:17:35.061Z,3.80
2022-09-01T04:20:09.136Z,3.70
2022-09-01T04:22:38.391Z,3.75
2022-09-01T04:25:09.361Z,4.18
2022-09-01T04:27:40.633Z,3.85
2022-09-01T04:30:13.340Z,4.20
2022-09-01T04:32:41.865Z,4.00
2022-09-01T04:35:17.284Z,3.97
2022-09-01T04:37:48.868Z,3.88
2022-09-01T04:40:18.905Z,4.05
2022-09-01T04:42:47.570Z,4.10
2022-09-01T04:45:22.742Z,4.00
2022-09-01T04:47:52.590Z,3.80
2022-09-01T04:50:22.327Z,4.38
2022-09-01T04:52:51.449Z,4.13
2022-09-01T04:55:20.059Z,4.03
2022-09-01T04:57:50.559Z,3.72
2022-09-01T05:00:26.251Z,4.22
2022-09-01T05:03:03.278Z,3.75
2022-09-01T05:05:42.941Z,3.90
2022-09-01T05:08:23.056Z,3.83
2022-09-01T05:10:57.018Z,4.63
2022-09-01T05:17:10.597Z,4.45
2022-09-01T05:19:39.720Z,4.10
2022-09-01T05:22:10.690Z,4.00
2022-09-01T05:24:42.201Z,4.40
2022-09-01T05:27:17.705Z,4.07
2022-09-01T05:29:47.112Z,4.60
2022-09-01T05:32:17.173Z,4.43
2022-09-01T05:34:46.309Z,4.20
2022-09-01T05:37:16.587Z,4.63
2022-09-01T05:39:46.313Z,4.22
2022-09-01T05:42:14.778Z,4.72
2022-09-01T05:44:45.179Z,4.60
2022-09-01T05:47:14.794Z,4.55
2022-09-01T05:49:53.858Z,4.72
2022-09-01T05:52:26.790Z,4.70
2022-09-01T05:54:57.048Z,4.53
2022-09-01T05:57:34.956Z,5.05
2022-09-01T06:00:11.294Z,4.70
2022-09-01T06:02:41.276Z,4.95
2022-09-01T06:05:13.953Z,5.07
2022-09-01T06:07:43.144Z,4.90
2022-09-01T06:10:13.287Z,5.40
2022-09-01T06:12:45.521Z,4.60
2022-09-01T06:15:18.720Z,5.25
2022-09-01T06:17:48.512Z,4.97
2022-09-01T06:20:19.893Z,5.05
2022-09-01T06:22:49.751Z,4.85
2022-09-01T06:25:18.992Z,4.53
2022-09-01T06:27:48.428Z,5.00
2022-09-01T06:30:24.122Z,4.68
2022-09-01T06:32:54.116Z,4.55
2022-09-01T06:35:29.672Z,4.60
2022-09-01T06:38:03.085Z,4.45
2022-09-01T06:40:32.595Z,4.60
2022-09-01T06:43:03.528Z,4.55
2022-09-01T06:45:32.352Z,4.63
2022-09-01T06:48:03.120Z,4.35
2022-09-01T06:53:38.999Z,4.50
2022-09-01T06:56:09.566Z,4.70
2022-09-01T06:58:40.568Z,4.30
2022-09-01T07:01:16.246Z,4.35
2022-09-01T07:03:47.860Z,3.90
2022-09-01T07:09:38.947Z,4.32
2022-09-01T07:17:36.095Z,3.45
2022-09-01T07:23:05.671Z,3.65
2022-09-01T07:28:36.793Z,3.08
2022-09-01T07:39:50.445Z,3.50
2022-09-01T07:45:28.363Z,3.30
2022-09-01T07:48:00.348Z,3.92
2022-09-01T07:50:40.911Z,3.58
2022-09-01T07:53:22.738Z,3.50
2022-09-01T07:55:55.097Z,3.05
2022-09-01T07:58:27.723Z,3.20
2022-09-01T08:01:00.519Z,3.42
2022-09-01T08:03:29.253Z,3.42
2022-09-01T08:06:01.167Z,3.88
2022-09-01T08:08:30.570Z,3.30
2022-09-01T08:11:04.805Z,3.35
2022-09-01T08:13:38.910Z,3.20
2022-09-01T08:16:18.945Z,3.63
2022-09-01T08:18:49.564Z,3.10
2022-09-01T08:21:22.436Z,3.20
2022-09-01T08:23:51.661Z,3.17
2022-09-01T08:26:24.294Z,3.25
2022-09-01T08:28:56.401Z,3.40
2022-09-01T08:31:30.624Z,2.92
2022-09-01T08:34:00.431Z,2.88
2022-09-01T08:36:28.971Z,3.50
2022-09-01T08:38:57.501Z,3.80
2022-09-01T08:41:39.787Z,3.50
2022-09-01T08:44:24.431Z,3.55
2022-09-01T08:46:59.676Z,3.28
2022-09-01T08:49:29.206Z,3.17
2022-09-01T08:52:06.042Z,3.17
2022-09-01T08:54:42.945Z,3.10
2022-09-01T08:57:19.327Z,2.90
2022-09-01T08:59:48.315Z,3.78
2022-09-01T09:02:34.282Z,2.78
2022-09-01T09:05:17.267Z,2.80
2022-09-01T09:08:07.606Z,3.00
2022-09-01T09:11:13.804Z,3.35
2022-09-01T09:13:56.819Z,3.05
2022-09-01T09:16:30.192Z,2.95
2022-09-01T09:19:02.670Z,2.92
2022-09-01T09:21:37.400Z,2.85
2022-09-01T09:24:20.680Z,2.90
2022-09-01T09:26:51.401Z,2.70
2022-09-01T09:29:23.315Z,2.88
2022-09-01T09:32:04.494Z,2.53
2022-09-01T09:34:37.036Z,2.67
2022-09-01T09:37:23.156Z,2.35
2022-09-01T09:40:12.255Z,2.70
2022-09-01T09:42:42.624Z,2.60
2022-09-01T09:45:24.995Z,2.50
2022-09-01T09:47:54.725Z,2.40
2022-09-01T09:50:27.743Z,2.40
2022-09-01T09:53:17.412Z,2.40
2022-09-01T09:56:11.849Z,2.65
2022-09-01T09:58:43.276Z,2.55
2022-09-01T10:01:17.910Z,2.45
2022-09-01T10:03:50.629Z,2.33
2022-09-01T10:06:34.248Z,2.65
2022-09-01T10:09:06.536Z,2.17
2022-09-01T10:11:41.642Z,2.25
2022-09-01T10:14:35.953Z,2.72
2022-09-01T10:17:15.668Z,2.47
2022-09-01T10:19:49.940Z,2.35
2022-09-01T10:22:18.926Z,2.35
2022-09-01T10:24:50.360Z,2.42
2022-09-01T10:27:24.193Z,2.40
2022-09-01T10:30:18.120Z,2.72
2022-09-01T10:32:55.805Z,2.40
2022-09-01T10:35:28.646Z,2.38
2022-09-01T10:37:59.771Z,2.00
2022-09-01T10:40:43.617Z,2.40
2022-09-01T10:43:36.239Z,2.45
2022-09-01T10:46:38.615Z,2.20
2022-09-01T10:49:25.207Z,2.53
2022-09-01T10:52:03.274Z,1.83
2022-09-01T10:54:56.904Z,2.03
2022-09-01T10:57:53.411Z,2.53
2022-09-01T11:04:03.118Z,2.78
2022-09-01T11:07:44.385Z,2.35
2022-09-01T11:10:32.433Z,2.53
2022-09-01T11:13:36.816Z,2.20
2022-09-01T11:16:51.879Z,2.50
2022-09-01T11:19:33.876Z,2.15
2022-09-01T11:22:16.058Z,2.15
2022-09-01T11:25:15.216Z,2.13
2022-09-01T11:28:02.548Z,2.10
2022-09-01T11:30:53.161Z,2.20
2022-09-01T11:33:35.265Z,2.10
2022-09-01T11:36:07.812Z,2.35
2022-09-01T11:38:48.570Z,2.00
2022-09-01T11:41:24.871Z,2.40
2022-09-01T11:43:58.098Z,2.05
2022-09-01T11:46:35.033Z,2.40
2022-09-01T11:49:08.648Z,2.08
2022-09-01T11:51:47.535Z,1.98
2022-09-01T11:54:17.920Z,2.10
2022-09-01T11:56:46.501Z,1.90
2022-09-01T11:59:15.421Z,1.77
2022-09-01T12:01:43.792Z,1.70
2022-09-01T12:04:24.130Z,1.98
2022-09-01T12:06:58.394Z,1.98
2022-09-01T12:09:40.726Z,1.80
2022-09-01T12:12:27.219Z,2.20
2022-09-01T12:15:05.616Z,2.00
2022-09-01T12:17:35.279Z,1.63
2022-09-01T12:20:28.881Z,1.98
2022-09-01T12:22:58.634Z,2.00
2022-09-01T12:25:30.696Z,2.17
2022-09-01T12:28:01.819Z,2.15
2022-09-01T12:30:31.159Z,2.00
2022-09-01T12:35:49.835Z,1.77
2022-09-01T12:38:25.294Z,2.28
2022-09-01T12:40:56.814Z,2.00
2022-09-01T12:43:40.919Z,2.08
2022-09-01T12:46:10.975Z,1.88
2022-09-01T12:48:44.733Z,2.10
2022-09-01T12:51:25.532Z,2.00
2022-09-01T12:54:00.576Z,1.98
2022-09-01T12:56:35.804Z,2.00
2022-09-01T12:59:15.670Z,2.30
2022-09-01T13:01:46.344Z,3.13
2022-09-01T13:04:28.712Z,2.42
2022-09-01T13:07:01.897Z,2.28
2022-09-01T13:09:30.631Z,1.92
2022-09-01T13:12:14.174Z,2.15
2022-09-01T13:14:43.011Z,2.00
2022-09-01T13:17:14.371Z,2.28
2022-09-01T13:19:44.250Z,2.60
2022-09-01T13:22:12.977Z,2.20
2022-09-01T13:24:41.389Z,2.40
2022-09-01T13:27:26.503Z,2.22
2022-09-01T13:29:57.306Z,2.35
2022-09-01T13:32:26.438Z,2.40
2022-09-01T13:34:55.726Z,3.22
2022-09-01T13:37:24.937Z,2.20
2022-09-01T13:39:53.316Z,2.38
2022-09-01T13:42:22.648Z,2.50
2022-09-01T13:44:55.436Z,2.30
2022-09-01T13:47:29.198Z,2.45
2022-09-01T13:50:07.638Z,2.50
2022-09-01T13:52:38.843Z,2.25
2022-09-01T13:55:09.252Z,2.50
2022-09-01T13:57:37.794Z,2.60
2022-09-01T14:00:11.080Z,2.75
2022-09-01T14:02:43.397Z,2.40
2022-09-01T14:05:12.519Z,2.40
2022-09-01T14:07:40.981Z,2.50
2022-09-01T14:10:10.710Z,2.40
2022-09-01T14:12:39.733Z,2.40
2022-09-01T14:15:15.472Z,2.20
2022-09-01T14:17:47.736Z,2.20
2022-09-01T14:20:19.681Z,2.22
2022-09-01T14:22:48.961Z,2.33
2022-09-01T14:25:19.469Z,2.13
2022-09-01T14:27:49.173Z,2.25
2022-09-01T14:30:20.791Z,2.20
2022-09-01T14:33:27.750Z,2.13
2022-09-01T14:35:56.371Z,2.15
2022-09-01T14:38:24.772Z,2.22
2022-09-01T14:40:54.398Z,2.22
2022-09-01T14:43:23.438Z,2.22
2022-09-01T14:45:52.233Z,2.40
2022-09-01T14:48:22.029Z,2.17
2022-09-01T14:50:52.431Z,1.88
2022-09-01T14:53:20.959Z,2.60
2022-09-01T14:55:55.078Z,2.20
2022-09-01T14:58:25.413Z,1.90
2022-09-01T15:01:12.016Z,2.30
2022-09-01T15:03:47.402Z,2.15
2022-09-01T15:06:20.283Z,2.10
2022-09-01T15:08:49.882Z,2.30
2022-09-01T15:11:21.242Z,1.90
2022-09-01T15:13:52.745Z,2.25
2022-09-01T15:16:23.868Z,2.40
2022-09-01T15:18:55.714Z,2.20
2022-09-01T15:21:28.420Z,2.42
2022-09-01T15:23:56.747Z,2.10
2022-09-01T15:26:25.826Z,2.10
2022-09-01T15:28:55.442Z,2.10
2022-09-01T15:31:32.524Z,1.90
2022-09-01T15:34:04.419Z,1.92
2022-09-01T15:36:40.292Z,2.38
2022-09-01T15:39:10.936Z,2.08
2022-09-01T15:41:39.959Z,2.13
2022-09-01T15:44:23.796Z,1.85
2022-09-01T15:46:52.939Z,1.80
2022-09-01T15:49:21.362Z,1.88
2022-09-01T15:51:52.566Z,1.83
2022-09-01T15:54:30.219Z,1.80
2022-09-01T15:56:59.480Z,2.17
2022-09-01T15:59:29.311Z,1.80
2022-09-01T16:01:57.946Z,1.80
2022-09-01T16:04:27.877Z,2.05
2022-09-01T16:07:01.857Z,1.65
2022-09-01T16:09:44.907Z,2.00
2022-09-01T16:12:15.658Z,1.98
2022-09-01T16:14:45.917Z,2.00
2022-09-01T16:17:21.781Z,1.85
2022-09-01T16:19:56.309Z,1.95
2022-09-01T16:22:30.016Z,1.75
2022-09-01T16:25:09.074Z,1.83
2022-09-01T16:27:42.794Z,1.60
2022-09-01T16:30:14.500Z,1.98
2022-09-01T16:32:47.291Z,1.80
2022-09-01T16:35:19.824Z,1.85
2022-09-01T16:37:58.199Z,2.00
2022-09-01T16:40:41.468Z,2.08
2022-09-01T16:43:20.643Z,1.92
2022-09-01T16:46:01.767Z,1.90
2022-09-01T16:48:42.285Z,1.70
2022-09-01T16:51:22.186Z,1.67
2022-09-01T16:54:13.725Z,1.77
2022-09-01T16:57:02.185Z,1.70
2022-09-01T16:59:41.208Z,1.75
2022-09-01T17:02:36.311Z,1.50
2022-09-01T17:05:13.821Z,1.65
2022-09-01T17:07:52.537Z,1.73
2022-09-01T17:10:41.281Z,1.73
2022-09-01T17:13:26.493Z,1.65
2022-09-01T17:16:08.261Z,1.60
2022-09-01T17:18:42.054Z,1.65
2022-09-01T17:21:15.886Z,1.60
2022-09-01T17:23:53.813Z,1.80
2022-09-01T17:26:29.058Z,1.60
2022-09-01T17:29:02.611Z,1.85
2022-09-01T17:31:49.612Z,1.70
2022-09-01T17:34:39.210Z,1.83
2022-09-01T17:37:22.310Z,1.88
2022-09-01T17:40:07.495Z,1.70
2022-09-01T17:42:51.459Z,1.65
2022-09-01T17:45:29.420Z,1.85
2022-09-01T17:48:07.923Z,1.65
2022-09-01T17:50:51.007Z,1.67
2022-09-01T17:53:34.211Z,1.70
2022-09-01T17:56:09.970Z,2.17
2022-09-01T17:58:50.697Z,1.52
2022-09-01T18:01:26.411Z,1.90
2022-09-01T18:04:18.364Z,1.70
2022-09-01T18:06:55.599Z,1.65
2022-09-01T18:09:28.590Z,1.80
2022-09-01T18:12:12.858Z,1.73
2022-09-01T18:14:53.994Z,1.70
2022-09-01T18:17:31.587Z,1.55
2022-09-01T18:20:10.484Z,1.85
2022-09-01T18:22:48.628Z,1.60
2022-09-01T18:25:20.735Z,2.05
2022-09-01T18:27:49.406Z,1.40
2022-09-01T18:30:42.671Z,1.40
2022-09-01T18:33:24.835Z,1.60
2022-09-01T18:36:05.311Z,1.45
2022-09-01T18:38:44.510Z,1.73
2022-09-01T18:41:32.150Z,1.58
2022-09-01T18:44:16.189Z,1.95
2022-09-01T18:46:55.114Z,1.67
2022-09-01T18:49:31.693Z,1.70
2022-09-01T18:52:13.916Z,1.42
2022-09-01T18:54:49.314Z,1.80
2022-09-01T18:57:23.727Z,1.75
2022-09-01T19:00:17.976Z,1.88
2022-09-01T19:03:05.162Z,1.90
2022-09-01T19:05:51.387Z,1.48
2022-09-01T19:08:29.086Z,1.90
2022-09-01T19:11:05.244Z,1.80
2022-09-01T19:13:53.875Z,1.75
2022-09-01T19:16:42.353Z,1.88
2022-09-01T19:19:22.385Z,1.70
2022-09-01T19:21:55.993Z,1.80
2022-09-01T19:24:30.745Z,3.90
2022-09-01T19:27:05.063Z,1.70
2022-09-01T19:29:42.376Z,1.70
2022-09-01T19:32:18.520Z,1.85
2022-09-01T19:34:52.872Z,1.63
2022-09-01T19:37:21.981Z,1.83
2022-09-01T19:39:54.172Z,2.10
2022-09-01T19:42:28.501Z,1.75
2022-09-01T19:45:07.068Z,2.00
2022-09-01T19:47:43.715Z,1.70
2022-09-01T19:50:19.403Z,1.85
2022-09-01T19:52:55.488Z,2.03
2022-09-01T19:55:31.790Z,1.90
2022-09-01T19:58:07.136Z,1.92
2022-09-01T20:00:51.495Z,1.67
2022-09-01T20:03:28.813Z,1.83
2022-09-01T20:06:07.022Z,1.98
2022-09-01T20:08:44.408Z,1.70
2022-09-01T20:11:20.274Z,1.80
2022-09-01T20:14:15.474Z,1.75
2022-09-01T20:16:48.982Z,1.77
2022-09-01T20:19:26.357Z,1.83
2022-09-01T20:22:04.237Z,1.88
2022-09-01T20:24:41.390Z,1.80
2022-09-01T20:27:29.607Z,1.92
2022-09-01T20:30:04.873Z,1.58
2022-09-01T20:32:41.319Z,1.73
2022-09-01T20:35:15.261Z,2.10
2022-09-01T20:37:50.845Z,2.20
2022-09-01T20:40:24.686Z,1.98
2022-09-01T20:43:08.666Z,2.10
2022-09-01T20:45:38.619Z,2.00
2022-09-01T20:48:14.661Z,1.80
2022-09-01T20:50:52.926Z,2.10
2022-09-01T20:53:36.676Z,2.13
2022-09-01T20:56:12.986Z,2.30
2022-09-01T20:58:45.688Z,1.75
2022-09-01T21:01:25.650Z,2.40
2022-09-01T21:04:06.224Z,2.20
2022-09-01T21:06:49.056Z,2.42
2022-09-01T21:09:26.127Z,2.05
2022-09-01T21:12:02.071Z,2.42
2022-09-01T21:14:45.389Z,2.10
2022-09-01T21:17:21.748Z,2.58
2022-09-01T21:19:59.918Z,2.60
2022-09-01T21:22:29.820Z,2.58
2022-09-01T21:25:00.475Z,2.50
2022-09-01T21:27:40.425Z,2.60
2022-09-01T21:30:12.336Z,2.63
2022-09-01T21:32:41.450Z,2.30
2022-09-01T21:35:13.092Z,2.08
2022-09-01T21:37:42.191Z,2.13
2022-09-01T21:40:15.200Z,1.85
2022-09-01T21:42:48.904Z,1.90
2022-09-01T21:45:20.508Z,2.35
2022-09-01T21:47:50.915Z,1.83
2022-09-01T21:50:23.079Z,2.10
2022-09-01T21:52:52.007Z,1.90
2022-09-01T21:55:23.304Z,1.85
2022-09-01T21:57:52.810Z,2.30
2022-09-01T22:00:30.163Z,2.20
2022-09-01T22:02:59.929Z,2.08
2022-09-01T22:05:29.340Z,2.65
2022-09-01T22:07:59.187Z,2.10
2022-09-01T22:10:31.944Z,1.85
2022-09-01T22:13:03.964Z,2.40
2022-09-01T22:15:32.996Z,2.20
2022-09-01T22:18:01.520Z,1.90
2022-09-01T22:20:32.270Z,1.80
2022-09-01T22:23:02.220Z,2.10
2022-09-01T22:25:36.932Z,2.33
2022-09-01T22:28:07.234Z,2.20
2022-09-01T22:30:36.686Z,2.20
2022-09-01T22:33:07.801Z,2.10
2022-09-01T22:35:42.203Z,2.20
2022-09-01T22:38:10.977Z,2.00
2022-09-01T22:40:47.302Z,2.30
2022-09-01T22:43:18.059Z,1.90
2022-09-01T22:45:47.590Z,2.33
2022-09-01T22:48:17.271Z,2.28
2022-09-01T22:50:47.571Z,2.30
2022-09-01T22:53:18.243Z,2.15
2022-09-01T22:55:51.209Z,2.20
2022-09-01T22:58:21.863Z,2.47
2022-09-01T23:00:53.432Z,2.20
2022-09-01T23:03:23.330Z,1.98
2022-09-01T23:06:03.478Z,2.13
2022-09-01T23:08:32.377Z,2.40
2022-09-01T23:11:02.661Z,2.80
2022-09-01T23:13:31.279Z,2.33
2022-09-01T23:16:05.667Z,2.00
2022-09-01T23:18:37.070Z,2.28
2022-09-01T23:21:06.124Z,2.08
2022-09-01T23:23:36.521Z,2.28
2022-09-01T23:26:09.329Z,2.20
2022-09-01T23:28:39.035Z,2.42
2022-09-01T23:31:10.383Z,2.28
2022-09-01T23:33:39.848Z,2.25
2022-09-01T23:36:10.537Z,2.42
2022-09-01T23:38:39.565Z,2.00
2022-09-01T23:41:13.919Z,2.30
2022-09-01T23:43:42.701Z,2.60
2022-09-01T23:46:19.574Z,2.80
2022-09-01T23:48:48.493Z,2.53
2022-09-01T23:51:19.885Z,2.10
2022-09-01T23:53:51.133Z,2.50
2022-09-01T23:56:23.208Z,2.22
2022-09-01T23:58:52.401Z,2.20
